Time;durP1;ratioP1;P1;durP2;ratioP2;P2;SDS_P1;SDS_P2;PMS_P1;PMS_P2;Temp;Humidity;BMP_temperature;BMP_pressure;BME280_temperature;BME280_humidity;BME280_pressure;Samples;Min_cycle;Max_cycle;Signal;HPM_P1;HPM_P2
2022/06/02 00:01:25;;;;;;;15.15;9.63;;;9.40;99.90;;;;;;5015333;28;20030;-75
2022/06/02 00:03:56;;;;;;;13.10;8.73;;;9.30;99.90;;;;;;5014161;28;20354;-75
2022/06/02 00:06:48;;;;;;;9.52;7.88;;;9.30;99.90;;;;;;5015913;28;20040;-75
2022/06/02 00:09:50;;;;;;;7.22;6.43;;;9.20;99.90;;;;;;4988922;28;20104;-75
2022/06/02 00:12:31;;;;;;;8.68;7.75;;;9.30;99.90;;;;;;5016097;28;20041;-75
2022/06/02 00:15:06;;;;;;;9.70;7.55;;;9.40;99.90;;;;;;4999713;28;20033;-75
2022/06/02 00:17:42;;;;;;;11.70;9.20;;;9.30;99.90;;;;;;5015914;28;20041;-75
2022/06/02 00:20:14;;;;;;;10.35;8.88;;;9.10;99.90;;;;;;4996649;28;20109;-75
2022/06/02 00:22:58;;;;;;;10.98;9.43;;;9.10;99.90;;;;;;5013625;28;20037;-75
2022/06/02 00:25:36;;;;;;;7.72;6.50;;;9.00;99.90;;;;;;5013475;28;20557;-75
2022/06/02 00:28:07;;;;;;;21.13;10.18;;;9.10;99.90;;;;;;5000308;28;20491;-75
2022/06/02 00:30:39;;;;;;;12.38;8.73;;;9.10;99.90;;;;;;5011898;28;20066;-75
2022/06/02 00:33:23;;;;;;;28.20;9.05;;;8.90;99.90;;;;;;5011659;28;20065;-75
2022/06/02 00:35:54;;;;;;;7.80;6.72;;;8.80;99.90;;;;;;5011140;28;20026;-75
2022/06/02 00:38:27;;;;;;;57.92;10.05;;;9.00;99.90;;;;;;4988385;28;20037;-75
2022/06/02 00:40:54;;;;;;;13.50;7.82;;;8.80;99.90;;;;;;5015138;28;20030;-74
2022/06/02 00:43:29;;;;;;;28.25;8.90;;;8.60;99.90;;;;;;4993844;28;20113;-76
2022/06/02 00:46:13;;;;;;;48.30;9.80;;;8.70;99.90;;;;;;5019173;28;20034;-74
2022/06/02 00:48:55;;;;;;;14.20;8.40;;;8.70;99.90;;;;;;5002875;28;20029;-75
2022/06/02 00:51:49;;;;;;;13.18;8.93;;;8.70;99.90;;;;;;5002492;28;20025;-74
2022/06/02 00:57:49;;;;;;;8.45;7.60;;;8.60;99.90;;;;;;5016465;28;20052;-75
2022/06/02 01:00:16;;;;;;;9.45;7.28;;;8.70;99.90;;;;;;5019027;28;20035;-75
2022/06/02 01:02:45;;;;;;;9.65;7.28;;;8.70;99.90;;;;;;5021749;28;20529;-75
2022/06/02 01:05:10;;;;;;;12.48;9.77;;;8.70;99.90;;;;;;5003667;28;20037;-75
2022/06/02 01:07:41;;;;;;;13.30;10.77;;;8.60;99.90;;;;;;5018039;28;20034;-75
2022/06/02 01:10:13;;;;;;;15.35;9.32;;;8.50;99.90;;;;;;5019934;28;20049;-75
2022/06/02 01:12:53;;;;;;;12.73;10.18;;;8.40;99.90;;;;;;5001676;28;20577;-75
2022/06/02 01:16:04;;;;;;;11.80;9.90;;;8.40;99.90;;;;;;5005716;28;20496;-75
2022/06/02 01:18:37;;;;;;;10.85;7.82;;;8.40;99.90;;;;;;4975505;28;20130;-75
2022/06/02 01:21:14;;;;;;;9.95;7.63;;;8.40;99.90;;;;;;4964003;28;20447;-76
2022/06/02 01:24:20;;;;;;;12.45;9.63;;;8.40;99.90;;;;;;5000677;28;20552;-74
2022/06/02 01:27:10;;;;;;;11.00;9.45;;;8.40;99.90;;;;;;4983007;28;20033;-75
2022/06/02 01:30:05;;;;;;;13.27;11.15;;;8.30;99.90;;;;;;5017277;28;20267;-74
2022/06/02 01:32:47;;;;;;;10.30;8.60;;;8.20;99.90;;;;;;5014494;28;20417;-75
2022/06/02 01:35:22;;;;;;;10.40;9.25;;;8.10;99.90;;;;;;5018870;28;20037;-75
2022/06/02 01:37:50;;;;;;;11.30;9.48;;;8.00;99.90;;;;;;5016381;28;20149;-76
2022/06/02 01:40:27;;;;;;;11.18;9.60;;;7.90;99.90;;;;;;5017427;28;20335;-75
2022/06/02 01:43:14;;;;;;;11.63;9.55;;;8.10;99.90;;;;;;5017009;28;20034;-75
2022/06/02 01:45:46;;;;;;;10.18;8.52;;;7.90;99.90;;;;;;4994926;28;20116;-75
2022/06/02 01:48:29;;;;;;;10.48;8.43;;;8.00;99.90;;;;;;5017121;28;20444;-76
2022/06/02 01:51:02;;;;;;;13.23;9.38;;;8.00;99.90;;;;;;5010264;28;20444;-75
2022/06/02 01:53:40;;;;;;;12.05;10.55;;;7.90;99.90;;;;;;5014639;28;20409;-76
2022/06/02 01:56:14;;;;;;;21.17;9.63;;;7.90;99.90;;;;;;5001801;28;20034;-75
2022/06/02 01:59:01;;;;;;;12.73;9.45;;;7.90;99.90;;;;;;5002141;28;20045;-75
2022/06/02 02:02:05;;;;;;;31.02;10.45;;;8.10;99.90;;;;;;5011300;28;20067;-75
2022/06/02 02:04:49;;;;;;;16.63;8.95;;;8.00;99.90;;;;;;5005126;28;20708;-74
2022/06/02 02:07:54;;;;;;;9.18;8.18;;;7.90;99.90;;;;;;5034466;28;20492;-75
2022/06/02 02:10:29;;;;;;;7.55;6.38;;;7.90;99.90;;;;;;5002026;28;20056;-75
2022/06/02 02:12:54;;;;;;;9.15;7.60;;;8.00;99.90;;;;;;5018954;28;20021;-75
2022/06/02 02:15:41;;;;;;;15.27;10.38;;;8.10;99.90;;;;;;5022125;28;20025;-75
2022/06/02 02:18:29;;;;;;;23.10;10.98;;;8.00;99.90;;;;;;5018985;28;20099;-76
2022/06/02 02:21:10;;;;;;;21.38;11.27;;;7.70;99.90;;;;;;5031892;28;20449;-76
2022/06/02 02:23:44;;;;;;;14.55;9.48;;;7.50;99.90;;;;;;5020282;28;20041;-74
2022/06/02 02:26:15;;;;;;;21.83;9.75;;;7.80;99.90;;;;;;5017907;28;20407;-75
2022/06/02 02:29:04;;;;;;;10.20;8.15;;;7.70;99.90;;;;;;4985228;28;20030;-75
2022/06/02 02:31:48;;;;;;;10.25;8.15;;;7.80;99.90;;;;;;5018678;28;20041;-76
2022/06/02 02:34:51;;;;;;;9.07;6.55;;;7.80;99.90;;;;;;5001060;28;20619;-74
2022/06/02 02:37:23;;;;;;;19.48;9.27;;;8.00;99.90;;;;;;5016633;28;20041;-75
2022/06/02 02:39:59;;;;;;;14.50;9.35;;;7.80;99.90;;;;;;4998512;28;20038;-76
2022/06/02 02:42:47;;;;;;;14.10;10.20;;;7.70;99.90;;;;;;5015632;28;20432;-75
2022/06/02 02:45:33;;;;;;;9.95;7.65;;;7.50;99.90;;;;;;5017260;28;20065;-76
2022/06/02 02:48:18;;;;;;;14.57;11.00;;;7.50;99.90;;;;;;5017983;28;20332;-74
2022/06/02 02:51:01;;;;;;;16.88;11.43;;;7.50;99.90;;;;;;5003074;28;20388;-75
2022/06/02 02:53:36;;;;;;;16.27;11.90;;;7.40;99.90;;;;;;4996868;28;20448;-77
2022/06/02 02:56:31;;;;;;;20.77;11.93;;;7.30;99.90;;;;;;5013490;28;20481;-77
2022/06/02 02:59:03;;;;;;;17.23;11.05;;;7.20;99.90;;;;;;5012675;28;20303;-77
2022/06/02 03:01:56;;;;;;;16.38;11.02;;;7.30;99.90;;;;;;4984917;28;20508;-77
2022/06/02 03:04:30;;;;;;;29.27;12.55;;;7.30;99.90;;;;;;5011366;28;20111;-77
2022/06/02 03:06:56;;;;;;;27.48;12.02;;;7.20;99.90;;;;;;5017848;28;20531;-76
2022/06/02 03:09:30;;;;;;;13.60;8.05;;;7.10;99.90;;;;;;4988815;28;20037;-77
2022/06/02 03:12:01;;;;;;;9.45;7.32;;;7.20;99.90;;;;;;5001382;28;20033;-77
2022/06/02 03:14:41;;;;;;;59.35;12.63;;;7.20;99.90;;;;;;5014359;28;20441;-77
2022/06/02 03:17:15;;;;;;;10.00;7.93;;;7.20;99.90;;;;;;5014873;28;20038;-77
2022/06/02 03:19:45;;;;;;;16.83;10.13;;;7.20;99.90;;;;;;5004126;28;20029;-77
2022/06/02 03:22:45;;;;;;;115.22;12.73;;;7.30;99.90;;;;;;5016902;28;20457;-77
2022/06/02 03:25:28;;;;;;;29.75;10.20;;;7.00;99.90;;;;;;5019626;28;20077;-77
2022/06/02 03:28:15;;;;;;;10.15;7.75;;;7.10;99.90;;;;;;5017760;28;20021;-77
2022/06/02 03:31:18;;;;;;;10.10;8.27;;;7.30;99.90;;;;;;5015797;28;20116;-77
2022/06/02 03:34:13;;;;;;;13.57;10.35;;;7.40;99.90;;;;;;5027967;28;20030;-78
2022/06/02 03:36:58;;;;;;;11.60;9.55;;;7.30;99.90;;;;;;4984437;28;20041;-77
2022/06/02 03:39:36;;;;;;;11.20;8.57;;;7.10;99.90;;;;;;5014247;28;20025;-77
2022/06/02 03:42:23;;;;;;;20.15;12.15;;;7.10;99.90;;;;;;5015003;28;20124;-77
2022/06/02 03:45:02;;;;;;;;;;;7.20;99.90;;;;;;5016595;28;20061;-77
2022/06/02 03:47:36;;;;;;;16.20;10.98;;;7.20;99.90;;;;;;5014899;28;20460;-77
2022/06/02 03:50:23;;;;;;;19.58;12.93;;;7.00;99.90;;;;;;5016097;28;20539;-77
2022/06/02 03:53:01;;;;;;;13.27;10.00;;;7.00;99.90;;;;;;5016853;28;20045;-77
2022/06/02 03:55:48;;;;;;;22.65;12.95;;;7.10;99.90;;;;;;5014039;28;20156;-77
2022/06/02 03:58:39;;;;;;;19.20;12.27;;;7.00;99.90;;;;;;5014393;28;20049;-77
2022/06/02 04:01:05;;;;;;;19.83;13.32;;;7.00;99.90;;;;;;5015041;28;20041;-77
2022/06/02 04:03:45;;;;;;;23.40;15.80;;;7.00;99.90;;;;;;5013409;28;20038;-77
2022/06/02 04:06:25;;;;;;;23.98;17.88;;;6.90;99.90;;;;;;5009590;28;20461;-78
2022/06/02 04:09:10;;;;;;;25.42;19.05;;;7.00;99.90;;;;;;5013864;28;20578;-77
2022/06/02 04:14:35;;;;;;;33.75;20.60;;;7.00;99.90;;;;;;5016327;28;20091;-77
2022/06/02 04:17:33;;;;;;;27.45;18.02;;;7.10;99.90;;;;;;5010375;28;20088;-77
2022/06/02 04:23:11;;;;;;;18.52;9.60;;;7.40;99.90;;;;;;5016046;28;20083;-77
2022/06/02 04:25:45;;;;;;;65.85;14.05;;;7.60;99.90;;;;;;5005428;28;20458;-77
2022/06/02 04:28:43;;;;;;;65.93;18.85;;;7.60;99.90;;;;;;5018451;28;20877;-77
2022/06/02 04:31:12;;;;;;;78.40;20.40;;;7.70;99.90;;;;;;4985277;28;20366;-77
2022/06/02 04:34:05;;;;;;;52.90;20.17;;;7.70;99.90;;;;;;5016100;28;20394;-77
2022/06/02 04:36:32;;;;;;;152.57;23.83;;;7.70;99.90;;;;;;5028186;28;20034;-77
2022/06/02 04:39:13;;;;;;;66.78;22.08;;;7.80;99.90;;;;;;5015666;28;20037;-78
2022/06/02 04:42:15;;;;;;;30.90;20.33;;;7.90;99.90;;;;;;5004434;28;20045;-77
2022/06/02 04:44:56;;;;;;;20.45;15.00;;;8.00;99.90;;;;;;5002632;28;20470;-77
2022/06/02 04:47:27;;;;;;;13.60;10.40;;;8.20;99.90;;;;;;5002223;28;20034;-77
2022/06/02 04:50:10;;;;;;;16.42;12.35;;;8.30;99.90;;;;;;5006697;28;20029;-77
2022/06/02 04:52:52;;;;;;;23.13;17.30;;;8.50;99.90;;;;;;5019424;28;20053;-77
2022/06/02 04:55:31;;;;;;;55.08;15.25;;;8.60;99.90;;;;;;5002976;28;20033;-77
2022/06/02 04:58:06;;;;;;;26.08;10.55;;;8.70;99.90;;;;;;5003312;28;20083;-77
2022/06/02 05:01:05;;;;;;;25.83;17.52;;;8.80;99.90;;;;;;5016611;28;20037;-78
2022/06/02 05:04:12;;;;;;;21.83;16.65;;;8.80;99.90;;;;;;5021520;28;20040;-77
2022/06/02 05:07:08;;;;;;;19.38;14.90;;;9.10;99.90;;;;;;4999439;28;20111;-77
2022/06/02 05:09:48;;;;;;;10.88;8.57;;;9.20;99.90;;;;;;5001355;28;20038;-77
2022/06/02 05:12:22;;;;;;;11.85;9.77;;;9.40;99.90;;;;;;5000277;28;20117;-77
2022/06/02 05:15:05;;;;;;;26.52;15.88;;;9.60;99.90;;;;;;5014887;28;20304;-77
2022/06/02 05:17:48;;;;;;;26.23;18.38;;;9.80;99.90;;;;;;5021482;28;20080;-78
2022/06/02 05:20:38;;;;;;;28.13;19.55;;;10.00;99.90;;;;;;5015695;28;20033;-77
2022/06/02 05:23:27;;;;;;;21.00;16.23;;;10.20;99.90;;;;;;5015285;28;20072;-78
2022/06/02 05:26:05;;;;;;;26.55;18.95;;;10.50;99.90;;;;;;5011773;28;20555;-78
2022/06/02 05:29:04;;;;;;;26.35;19.33;;;10.70;99.90;;;;;;5012986;28;20103;-77
2022/06/02 05:31:54;;;;;;;30.88;20.35;;;10.90;99.90;;;;;;5018177;28;20029;-78
2022/06/02 05:34:32;;;;;;;34.42;23.45;;;11.30;99.90;;;;;;5015257;28;20025;-78
2022/06/02 05:36:57;;;;;;;26.55;19.77;;;11.60;99.90;;;;;;5015452;28;20026;-78
2022/06/02 05:39:58;;;;;;;24.02;18.65;;;11.90;99.90;;;;;;5016360;28;20584;-78
2022/06/02 05:42:44;;;;;;;30.63;19.58;;;12.20;99.90;;;;;;5009851;28;20493;-78
2022/06/02 05:45:45;;;;;;;25.65;18.65;;;12.50;99.90;;;;;;5004127;28;20104;-78
2022/06/02 05:48:49;;;;;;;23.92;18.20;;;12.90;99.90;;;;;;5009254;28;20494;-78
2022/06/02 05:51:40;;;;;;;23.77;17.58;;;13.20;99.90;;;;;;5019420;28;20057;-78
2022/06/02 05:54:29;;;;;;;26.08;19.30;;;13.50;99.90;;;;;;5004364;28;20046;-78
2022/06/02 05:57:04;;;;;;;28.52;19.00;;;13.80;99.90;;;;;;5003880;28;20037;-78
2022/06/02 05:59:49;;;;;;;22.10;16.67;;;14.10;99.90;;;;;;5016618;28;20088;-78
2022/06/02 06:02:28;;;;;;;23.25;17.95;;;14.40;99.90;;;;;;5018066;28;20025;-78
2022/06/02 06:05:24;;;;;;;23.92;18.02;;;14.60;99.90;;;;;;5016452;28;20080;-78
2022/06/02 06:07:56;;;;;;;23.67;17.67;;;14.80;99.90;;;;;;5012323;28;20497;-78
2022/06/02 06:10:52;;;;;;;24.92;19.05;;;15.20;99.90;;;;;;5017488;28;20051;-78
2022/06/02 06:13:36;;;;;;;21.25;17.17;;;15.50;99.90;;;;;;5017927;28;20029;-79
2022/06/02 06:16:30;;;;;;;23.02;17.63;;;15.80;99.90;;;;;;5017389;28;20026;-78
2022/06/02 06:19:05;;;;;;;20.40;15.93;;;16.20;99.90;;;;;;5012553;28;20048;-79
2022/06/02 06:21:45;;;;;;;25.13;18.43;;;16.30;99.90;;;;;;5004093;28;20140;-79
2022/06/02 06:24:24;;;;;;;18.63;13.48;;;16.60;99.90;;;;;;5013642;28;20033;-79
2022/06/02 06:26:59;;;;;;;17.90;15.02;;;16.70;99.90;;;;;;5010235;28;20036;-79
2022/06/02 06:29:41;;;;;;;20.38;17.15;;;16.90;99.90;;;;;;5016769;28;20037;-78
2022/06/02 06:32:34;;;;;;;23.33;17.15;;;17.00;99.90;;;;;;5012010;28;20092;-79
2022/06/02 06:35:10;;;;;;;18.05;15.93;;;17.30;99.90;;;;;;5019510;28;20052;-79
2022/06/02 06:37:49;;;;;;;20.25;15.68;;;17.60;99.90;;;;;;5008459;28;20049;-79
2022/06/02 06:40:32;;;;;;;18.88;14.75;;;17.90;99.90;;;;;;5006086;28;20041;-79
2022/06/02 06:43:07;;;;;;;14.55;12.20;;;18.30;99.90;;;;;;4999220;28;20365;-79
2022/06/02 06:45:44;;;;;;;16.20;13.60;;;18.50;99.90;;;;;;5021035;28;20036;-80
2022/06/02 06:48:34;;;;;;;15.40;12.80;;;18.80;99.90;;;;;;5002728;28;20087;-79
2022/06/02 06:51:03;;;;;;;18.05;11.75;;;19.00;99.90;;;;;;5018605;28;20306;-79
2022/06/02 06:53:31;;;;;;;11.65;10.20;;;19.10;99.90;;;;;;5016937;28;20041;-79
2022/06/02 06:56:04;;;;;;;18.77;13.75;;;19.20;99.90;;;;;;5013901;28;20034;-79
2022/06/02 06:59:07;;;;;;;18.30;14.45;;;19.40;99.90;;;;;;5024058;28;20042;-79
2022/06/02 07:01:48;;;;;;;13.73;11.70;;;19.80;99.90;;;;;;5019056;28;20091;-79
2022/06/02 07:04:26;;;;;;;15.48;11.10;;;19.90;99.90;;;;;;5001376;28;20328;-78
2022/06/02 07:07:31;;;;;;;14.25;10.70;;;20.10;99.90;;;;;;5014988;28;20495;-78
2022/06/02 07:10:08;;;;;;;12.70;11.38;;;20.30;99.90;;;;;;5008329;28;20404;-78
2022/06/02 07:13:11;;;;;;;12.43;10.63;;;20.50;99.90;;;;;;4991523;28;20033;-78
2022/06/02 07:15:48;;;;;;;12.93;10.52;;;21.00;99.90;;;;;;4998656;28;20048;-78
2022/06/02 07:18:32;;;;;;;11.50;9.77;;;21.10;99.90;;;;;;5016567;28;20461;-78
2022/06/02 07:21:27;;;;;;;9.18;7.80;;;21.30;99.90;;;;;;5017002;28;20032;-78
2022/06/02 07:24:15;;;;;;;12.63;9.05;;;21.40;99.90;;;;;;5000267;28;20034;-79
2022/06/02 07:26:53;;;;;;;10.40;9.05;;;21.50;99.90;;;;;;5015184;28;20038;-79
2022/06/02 07:29:33;;;;;;;9.02;7.35;;;21.60;99.90;;;;;;5001961;28;20594;-79
2022/06/02 07:32:34;;;;;;;11.20;9.40;;;21.80;99.90;;;;;;5019723;28;20088;-79
2022/06/02 07:35:37;;;;;;;14.68;9.50;;;22.20;99.90;;;;;;4975960;28;20033;-80
2022/06/02 07:38:17;;;;;;;9.68;7.95;;;22.50;99.90;;;;;;5016316;28;20499;-80
2022/06/02 07:40:55;;;;;;;9.40;7.80;;;22.60;99.90;;;;;;5012189;28;20529;-81
2022/06/02 07:43:50;;;;;;;10.27;7.40;;;23.20;99.90;;;;;;5018039;28;20053;-81
2022/06/02 07:46:20;;;;;;;6.05;5.45;;;23.50;99.90;;;;;;5015989;28;20026;-81
2022/06/02 07:48:56;;;;;;;5.25;4.75;;;23.50;99.90;;;;;;5013238;28;20033;-81
2022/06/02 07:51:33;;;;;;;4.82;4.30;;;23.40;99.90;;;;;;5000505;28;20038;-81
2022/06/02 07:54:23;;;;;;;4.50;4.10;;;23.30;99.80;;;;;;5017068;28;20387;-81
2022/06/02 07:57:08;;;;;;;5.50;4.90;;;23.60;99.60;;;;;;5021838;28;20033;-81
2022/06/02 07:59:54;;;;;;;6.22;5.32;;;23.90;99.50;;;;;;5019932;28;20041;-81
2022/06/02 08:02:33;;;;;;;;;;;23.90;97.30;;;;;;5024135;28;20033;-81
2022/06/02 08:05:22;;;;;;;5.28;4.60;;;23.80;96.30;;;;;;5019746;28;20230;-81
2022/06/02 08:08:17;;;;;;;7.72;5.05;;;24.00;98.30;;;;;;5016951;28;20053;-81
2022/06/02 08:10:56;;;;;;;6.63;5.45;;;24.40;96.60;;;;;;4995863;28;20030;-81
2022/06/02 08:13:54;;;;;;;5.70;4.90;;;24.90;98.90;;;;;;5003123;28;20396;-81
2022/06/02 08:16:46;;;;;;;5.55;4.95;;;25.10;97.30;;;;;;5006013;28;20457;-81
2022/06/02 08:19:23;;;;;;;5.32;4.72;;;25.70;95.20;;;;;;4988439;28;20040;-82
2022/06/02 08:21:53;;;;;;;4.72;4.32;;;26.00;94.00;;;;;;5009579;28;20572;-82
2022/06/02 08:24:40;;;;;;;5.40;4.93;;;25.80;92.90;;;;;;5001572;28;20029;-82
2022/06/02 08:27:30;;;;;;;6.95;4.97;;;25.70;92.20;;;;;;5014162;28;20065;-82
2022/06/02 08:30:03;;;;;;;5.15;4.68;;;25.70;91.60;;;;;;5016474;28;20033;-82
2022/06/02 08:32:37;;;;;;;5.60;4.95;;;25.60;90.90;;;;;;5019816;28;20441;-83
2022/06/02 08:35:17;;;;;;;8.65;7.55;;;25.50;90.40;;;;;;5013023;28;20033;-83
2022/06/02 08:38:12;;;;;;;5.28;4.78;;;25.50;90.00;;;;;;5025921;28;20116;-83
2022/06/02 08:40:57;;;;;;;7.28;5.40;;;25.40;89.70;;;;;;5020212;28;20070;-83
2022/06/02 08:44:03;;;;;;;6.20;4.80;;;25.40;87.90;;;;;;5000676;28;20386;-84
2022/06/02 08:46:58;;;;;;;6.65;5.93;;;25.30;87.10;;;;;;5006607;28;21395;-83
2022/06/02 08:49:35;;;;;;;5.78;5.18;;;25.30;87.40;;;;;;5005497;28;20037;-83
2022/06/02 08:52:07;;;;;;;5.75;4.32;;;25.30;86.20;;;;;;5019432;28;20037;-83
2022/06/02 08:54:51;;;;;;;5.22;3.60;;;25.10;90.20;;;;;;5005779;28;20116;-83
2022/06/02 08:57:47;;;;;;;5.95;4.00;;;25.10;88.60;;;;;;5018402;28;20106;-83
2022/06/02 09:00:20;;;;;;;4.82;3.80;;;25.30;87.50;;;;;;5006034;28;20117;-83
2022/06/02 09:02:57;;;;;;;5.93;5.05;;;25.30;85.90;;;;;;5000548;28;20265;-83
2022/06/02 09:06:00;;;;;;;5.40;4.38;;;25.50;82.30;;;;;;5002120;28;20036;-84
2022/06/02 09:08:50;;;;;;;4.93;4.07;;;25.50;81.50;;;;;;5034392;28;20038;-83
2022/06/02 09:11:32;;;;;;;5.22;4.47;;;25.40;82.80;;;;;;5019218;28;20029;-84
2022/06/02 09:14:12;;;;;;;5.38;4.00;;;25.20;82.80;;;;;;5017344;28;20049;-84
2022/06/02 09:16:47;;;;;;;7.50;6.80;;;25.10;82.30;;;;;;5018851;28;20029;-84
2022/06/02 09:19:34;;;;;;;6.80;6.22;;;25.10;81.60;;;;;;5018786;28;20490;-84
2022/06/02 09:22:23;;;;;;;6.72;6.13;;;25.10;83.00;;;;;;4993100;28;20492;-84
2022/06/02 09:25:18;;;;;;;6.47;5.68;;;24.80;79.80;;;;;;5016118;28;20030;-84
2022/06/02 09:28:21;;;;;;;6.43;5.15;;;25.40;85.20;;;;;;5005483;28;20420;-84
2022/06/02 09:31:05;;;;;;;8.00;5.25;;;25.40;78.90;;;;;;4995168;28;20030;-84
2022/06/02 09:33:45;;;;;;;5.60;4.82;;;25.80;79.30;;;;;;5016798;28;20025;-84
2022/06/02 09:36:35;;;;;;;4.85;4.38;;;25.70;79.00;;;;;;5019760;28;20124;-83
2022/06/02 09:39:07;;;;;;;4.20;3.80;;;26.10;78.70;;;;;;5021354;28;20130;-85
2022/06/02 09:42:00;;;;;;;4.35;3.95;;;26.40;78.90;;;;;;5024288;28;20548;-85
2022/06/02 09:44:27;;;;;;;3.33;3.03;;;26.60;75.40;;;;;;5019658;28;20393;-85
2022/06/02 09:46:53;;;;;;;3.88;3.30;;;26.80;81.10;;;;;;4988036;28;20033;-85
2022/06/02 09:49:53;;;;;;;3.17;2.83;;;27.00;80.50;;;;;;5023448;28;20331;-85
2022/06/02 09:52:52;;;;;;;3.20;2.90;;;27.20;77.30;;;;;;5016975;28;20038;-86
2022/06/02 09:55:38;;;;;;;2.78;2.00;;;27.50;76.80;;;;;;5014838;28;20076;-86
2022/06/02 09:58:33;;;;;;;3.28;2.80;;;27.90;77.90;;;;;;5001562;28;20037;-86
2022/06/02 10:01:17;;;;;;;2.60;2.23;;;28.20;68.90;;;;;;5005319;28;20042;-86
2022/06/02 10:04:25;;;;;;;3.75;2.60;;;28.30;69.00;;;;;;5017697;28;20045;-86
2022/06/02 10:07:12;;;;;;;2.70;2.45;;;28.40;73.20;;;;;;5001556;28;20630;-86
2022/06/02 10:09:59;;;;;;;2.58;2.38;;;28.70;67.20;;;;;;5022481;28;20050;-86
2022/06/02 10:13:18;;;;;;;2.15;1.80;;;28.90;68.60;;;;;;5021270;28;20044;-86
2022/06/02 10:15:53;;;;;;;2.17;2.03;;;29.40;67.10;;;;;;4985015;28;20045;-86
2022/06/02 10:18:26;;;;;;;2.72;2.50;;;29.40;65.50;;;;;;5013446;28;20044;-85
2022/06/02 10:21:10;;;;;;;2.60;2.40;;;29.80;66.30;;;;;;5015418;28;20053;-85
2022/06/02 10:23:50;;;;;;;2.47;2.15;;;30.00;63.60;;;;;;5020981;28;20055;-84
2022/06/02 10:26:20;;;;;;;2.05;1.88;;;30.10;61.70;;;;;;5024278;28;20119;-84
2022/06/02 10:28:48;;;;;;;1.75;1.65;;;30.10;62.90;;;;;;5015292;28;20038;-84
2022/06/02 10:31:41;;;;;;;2.03;1.83;;;30.20;67.20;;;;;;5023511;28;20346;-84
2022/06/02 10:34:28;;;;;;;3.75;2.20;;;30.80;67.00;;;;;;5015473;28;20034;-83
2022/06/02 10:37:00;;;;;;;2.97;2.65;;;31.00;61.40;;;;;;5023042;28;20026;-83
2022/06/02 10:39:38;;;;;;;6.03;2.13;;;31.40;63.10;;;;;;5003253;28;20647;-82
2022/06/02 10:42:28;;;;;;;1.60;1.50;;;31.50;60.50;;;;;;5001750;28;20026;-81
2022/06/02 10:45:17;;;;;;;2.22;2.03;;;31.80;63.40;;;;;;5014820;28;20104;-81
2022/06/02 10:48:01;;;;;;;3.13;2.08;;;31.70;59.70;;;;;;5020621;28;20507;-81
2022/06/02 10:50:51;;;;;;;2.60;1.80;;;32.40;55.20;;;;;;4658712;28;10000075;-81
2022/06/02 10:53:29;;;;;;;2.78;2.25;;;32.90;57.80;;;;;;5000434;28;20048;-83
2022/06/02 10:56:15;;;;;;;5.72;1.77;;;33.20;53.10;;;;;;5017129;28;20425;-83
2022/06/02 10:58:58;;;;;;;;;;;33.10;55.20;;;;;;4997591;28;20041;-82
2022/06/02 11:01:37;;;;;;;2.03;1.77;;;33.30;52.30;;;;;;5011994;28;19925;-81
2022/06/02 11:04:30;;;;;;;1.65;1.30;;;33.00;52.20;;;;;;4993675;28;20033;-82
2022/06/02 11:07:32;;;;;;;2.00;1.30;;;32.60;55.00;;;;;;5016446;28;20037;-82
2022/06/02 11:10:13;;;;;;;2.47;1.90;;;32.20;52.50;;;;;;5011744;28;20044;-82
2022/06/02 11:13:09;;;;;;;2.15;1.95;;;32.20;51.90;;;;;;5017352;28;20061;-82
2022/06/02 11:15:49;;;;;;;1.73;1.50;;;32.00;53.10;;;;;;5013881;28;20029;-82
2022/06/02 11:18:49;;;;;;;1.70;1.60;;;32.00;53.90;;;;;;4994946;28;20120;-82
2022/06/02 11:21:32;;;;;;;2.45;1.92;;;31.80;54.20;;;;;;5010546;28;20087;-82
2022/06/02 11:24:27;;;;;;;2.30;2.10;;;32.00;52.50;;;;;;4997039;28;20493;-82
2022/06/02 11:27:30;;;;;;;1.48;1.20;;;32.10;51.90;;;;;;5016158;28;20128;-82
2022/06/02 11:30:19;;;;;;;3.00;1.83;;;32.20;53.90;;;;;;5016629;28;20538;-82
2022/06/02 11:33:04;;;;;;;3.33;1.60;;;32.40;51.80;;;;;;5013193;28;20493;-82
2022/06/02 11:36:04;;;;;;;1.70;1.45;;;32.50;48.90;;;;;;5015820;28;20039;-82
2022/06/02 11:38:53;;;;;;;1.75;1.48;;;32.70;50.80;;;;;;5011905;28;20527;-82
2022/06/02 11:41:43;;;;;;;1.65;1.55;;;32.80;50.40;;;;;;5020791;28;20441;-81
2022/06/02 11:44:26;;;;;;;1.75;1.30;;;33.00;46.70;;;;;;5018922;28;20469;-81
2022/06/02 11:47:12;;;;;;;1.65;1.48;;;33.10;49.70;;;;;;5018113;28;20034;-82
2022/06/02 11:49:54;;;;;;;1.30;1.15;;;33.00;49.60;;;;;;5015512;28;20058;-81
2022/06/02 11:53:18;;;;;;;1.85;1.10;;;33.10;50.90;;;;;;5000328;28;20036;-81
2022/06/02 11:55:45;;;;;;;1.50;1.40;;;33.40;49.00;;;;;;4983259;28;20049;-81
2022/06/02 11:58:32;;;;;;;1.50;1.30;;;33.50;49.10;;;;;;5006287;28;20057;-82
2022/06/02 12:01:26;;;;;;;1.42;1.33;;;33.80;48.20;;;;;;5020187;28;20033;-82
2022/06/02 12:04:10;;;;;;;2.47;1.95;;;34.00;48.60;;;;;;5013144;28;20045;-81
2022/06/02 12:07:11;;;;;;;2.42;1.60;;;34.70;46.30;;;;;;5002782;28;20060;-81
2022/06/02 12:10:14;;;;;;;2.97;1.75;;;35.10;43.30;;;;;;5013672;28;20393;-81
2022/06/02 12:12:41;;;;;;;1.27;1.15;;;35.10;42.90;;;;;;5015449;28;20027;-81
2022/06/02 12:15:29;;;;;;;1.50;1.40;;;35.00;42.10;;;;;;5018384;28;20056;-81
2022/06/02 12:18:19;;;;;;;2.05;1.90;;;35.00;44.00;;;;;;4999452;28;20470;-81
2022/06/02 12:21:15;;;;;;;3.13;1.88;;;34.80;42.50;;;;;;5031554;28;20045;-81
2022/06/02 12:23:49;;;;;;;;;;;34.80;42.40;;;;;;5014018;28;20148;-81
2022/06/02 12:26:15;;;;;;;2.03;1.70;;;34.50;43.00;;;;;;5017883;28;19920;-81
2022/06/02 12:29:16;;;;;;;2.70;1.58;;;34.40;42.80;;;;;;5012861;28;20037;-81
2022/06/02 12:32:09;;;;;;;2.20;1.83;;;33.90;40.60;;;;;;4993523;28;20034;-81
2022/06/02 12:34:46;;;;;;;4.55;2.08;;;33.50;41.60;;;;;;5014453;28;20120;-81
2022/06/02 12:37:47;;;;;;;1.92;1.73;;;33.10;41.00;;;;;;4990022;28;20055;-81
2022/06/02 12:40:24;;;;;;;2.00;1.67;;;32.80;40.80;;;;;;5015004;28;20029;-81
2022/06/02 12:43:03;;;;;;;3.22;2.22;;;32.60;41.50;;;;;;5005090;28;20026;-81
2022/06/02 12:45:41;;;;;;;3.53;1.55;;;32.50;41.20;;;;;;4992762;28;20038;-81
2022/06/02 12:48:09;;;;;;;2.63;2.00;;;32.60;43.60;;;;;;5017944;28;20025;-81
2022/06/02 12:50:54;;;;;;;2.25;1.80;;;32.70;40.60;;;;;;5025865;28;20033;-82
2022/06/02 12:53:47;;;;;;;1.30;1.23;;;32.60;41.00;;;;;;5009317;28;20037;-81
2022/06/02 12:56:40;;;;;;;2.33;1.40;;;32.60;44.60;;;;;;5006141;28;20073;-78
2022/06/02 12:59:36;;;;;;;3.25;1.52;;;32.80;45.50;;;;;;5020366;28;20518;-78
2022/06/02 13:02:06;;;;;;;1.88;1.30;;;32.90;43.90;;;;;;5020878;28;20547;-79
2022/06/02 13:04:40;;;;;;;1.80;1.40;;;33.10;43.10;;;;;;4992494;28;20038;-78
2022/06/02 13:07:27;;;;;;;1.55;1.45;;;33.30;42.40;;;;;;5007726;28;20393;-78
2022/06/02 13:10:05;;;;;;;1.33;1.33;;;33.50;43.00;;;;;;5024080;28;20112;-78
2022/06/02 13:12:49;;;;;;;1.85;1.33;;;33.60;43.30;;;;;;5022796;28;20104;-78
2022/06/02 13:15:27;;;;;;;1.77;1.23;;;33.90;43.50;;;;;;5017155;28;20514;-78
2022/06/02 13:18:24;;;;;;;1.88;1.50;;;33.80;43.10;;;;;;5020045;28;20416;-78
2022/06/02 13:21:10;;;;;;;;;;;33.70;43.30;;;;;;5021319;28;20033;-79
2022/06/02 13:24:00;;;;;;;1.50;1.40;;;33.60;42.70;;;;;;5017654;28;19913;-78
2022/06/02 13:26:30;;;;;;;2.05;1.75;;;33.60;42.20;;;;;;5018283;28;20033;-78
2022/06/02 13:29:10;;;;;;;4.93;1.60;;;33.70;41.60;;;;;;5013034;28;20363;-78
2022/06/02 13:32:13;;;;;;;2.60;2.00;;;33.80;40.90;;;;;;5018373;28;20504;-79
2022/06/02 13:35:00;;;;;;;4.13;2.20;;;33.90;41.10;;;;;;5020408;28;20035;-77
2022/06/02 13:37:26;;;;;;;2.03;1.55;;;34.00;40.80;;;;;;5020311;28;20227;-78
2022/06/02 13:40:19;;;;;;;1.33;1.20;;;33.90;41.40;;;;;;5015267;28;20113;-78
2022/06/02 13:43:14;;;;;;;2.45;1.42;;;33.80;42.10;;;;;;5014711;28;20030;-77
2022/06/02 13:45:58;;;;;;;1.60;1.50;;;33.50;42.80;;;;;;5004847;28;20117;-78
2022/06/02 13:48:42;;;;;;;3.28;1.92;;;33.50;39.80;;;;;;5018122;28;20108;-77
2022/06/02 13:51:20;;;;;;;1.83;1.73;;;33.60;38.90;;;;;;5015437;28;20030;-78
2022/06/02 13:57:38;;;;;;;3.38;1.52;;;33.70;39.20;;;;;;5015876;28;20025;-78
2022/06/02 14:00:42;;;;;;;1.90;1.70;;;33.70;39.80;;;;;;5015263;28;20041;-77
2022/06/02 14:03:19;;;;;;;2.55;1.90;;;33.80;40.80;;;;;;5018764;28;20037;-77
2022/06/02 14:06:08;;;;;;;2.38;1.50;;;33.90;39.80;;;;;;5022542;28;20037;-77
2022/06/02 14:08:57;;;;;;;2.92;2.30;;;33.80;41.00;;;;;;4996664;28;20032;-77
2022/06/02 14:11:32;;;;;;;2.45;1.70;;;34.00;38.90;;;;;;5021737;28;20026;-78
2022/06/02 14:14:21;;;;;;;1.58;1.45;;;34.00;38.80;;;;;;5016796;28;20547;-78
2022/06/02 14:17:08;;;;;;;1.45;1.35;;;33.80;36.60;;;;;;5016026;28;20029;-80
2022/06/02 14:20:14;;;;;;;1.55;1.23;;;33.80;38.60;;;;;;5001407;28;20037;-81
2022/06/02 14:22:55;;;;;;;1.98;1.58;;;33.70;39.10;;;;;;5019329;28;20033;-81